createdAt,value
2018-11-07T00:01:57.929Z,92693.29
2018-11-07T00:04:34.136Z,92692.70
2018-11-07T00:07:11.003Z,92692.44
2018-11-07T00:09:47.034Z,92698.45
2018-11-07T00:12:22.904Z,92690.14
2018-11-07T00:14:59.057Z,92690.02
2018-11-07T00:17:34.991Z,92687.67
2018-11-07T00:20:11.915Z,92683.81
2018-11-07T00:22:47.786Z,92687.48
2018-11-07T00:25:23.701Z,92683.77
2018-11-07T00:27:59.568Z,92689.59
2018-11-07T00:30:35.442Z,92687.38
2018-11-07T00:33:11.413Z,92682.02
2018-11-07T00:35:47.530Z,92683.56
2018-11-07T00:38:23.378Z,92674.98
2018-11-07T00:40:59.449Z,92674.06
2018-11-07T00:43:35.473Z,92672.34
2018-11-07T00:46:11.621Z,92679.02
2018-11-07T00:48:47.467Z,92676.13
2018-11-07T00:51:23.552Z,92675.61
2018-11-07T00:53:59.744Z,92672.36
2018-11-07T00:56:36.228Z,92671.43
2018-11-07T00:59:12.110Z,92676.87
2018-11-07T01:01:48.134Z,92675.66
2018-11-07T01:04:24.113Z,92669.91
2018-11-07T01:07:00.625Z,92665.70
2018-11-07T01:09:36.771Z,92663.67
2018-11-07T01:12:12.843Z,92666.32
2018-11-07T01:14:49.041Z,92666.28
2018-11-07T01:17:25.017Z,92657.53
2018-11-07T01:20:01.325Z,92656.66
2018-11-07T01:22:37.396Z,92649.80
2018-11-07T01:25:13.267Z,92649.84
2018-11-07T01:27:49.217Z,92648.32
2018-11-07T01:30:24.976Z,92648.35
2018-11-07T01:33:00.944Z,92646.45
2018-11-07T01:35:36.923Z,92641.84
2018-11-07T01:38:12.940Z,92641.44
2018-11-07T01:40:48.844Z,92640.30
2018-11-07T01:43:24.734Z,92640.28
2018-11-07T01:46:00.731Z,92638.28
2018-11-07T01:48:36.724Z,92634.03
2018-11-07T01:51:12.725Z,92632.97
2018-11-07T01:53:48.588Z,92632.84
2018-11-07T01:56:24.429Z,92635.12
2018-11-07T01:59:01.189Z,92629.50
2018-11-07T02:01:37.305Z,92632.17
2018-11-07T02:04:13.451Z,92641.33
2018-11-07T02:06:49.333Z,92640.80
2018-11-07T02:09:25.218Z,92636.39
2018-11-07T02:12:01.164Z,92630.95
2018-11-07T02:14:37.193Z,92638.84
2018-11-07T02:17:12.998Z,92644.92
2018-11-07T02:19:48.945Z,92643.62
2018-11-07T02:22:24.619Z,92639.38
2018-11-07T02:25:00.730Z,92642.83
2018-11-07T02:27:36.759Z,92637.38
2018-11-07T02:30:14.708Z,92636.77
2018-11-07T02:32:50.648Z,92637.93
2018-11-07T02:35:26.611Z,92636.84
2018-11-07T02:38:02.675Z,92642.86
2018-11-07T02:40:38.636Z,92645.87
2018-11-07T02:43:17.836Z,92636.23
2018-11-07T02:45:53.713Z,92643.59
2018-11-07T02:48:32.165Z,92639.61
2018-11-07T02:51:08.341Z,92644.28
2018-11-07T02:53:44.282Z,92643.33
2018-11-07T02:56:20.240Z,92651.13
2018-11-07T02:58:56.456Z,92651.96
2018-11-07T03:01:32.755Z,92654.59
2018-11-07T03:04:08.763Z,92655.53
2018-11-07T03:06:44.689Z,92647.91
2018-11-07T03:09:20.464Z,92654.73
2018-11-07T03:11:56.389Z,92659.77
2018-11-07T03:14:32.554Z,92659.36
2018-11-07T03:17:08.580Z,92652.69
2018-11-07T03:19:44.427Z,92647.40
2018-11-07T03:22:20.345Z,92655.26
2018-11-07T03:24:56.636Z,92654.91
2018-11-07T03:27:32.800Z,92655.66
2018-11-07T03:30:09.726Z,92657.53
2018-11-07T03:32:45.528Z,92654.38
2018-11-07T03:35:28.260Z,92652.83
2018-11-07T03:38:04.500Z,92652.13
2018-11-07T03:40:41.294Z,92659.14
2018-11-07T03:43:17.251Z,92657.70
2018-11-07T03:45:59.947Z,92654.55
2018-11-07T03:48:36.720Z,92656.47
2018-11-07T03:51:12.685Z,92659.36
2018-11-07T03:53:48.712Z,92659.52
2018-11-07T03:56:24.858Z,92655.05
2018-11-07T03:59:00.818Z,92655.42
2018-11-07T04:01:36.708Z,92653.20
2018-11-07T04:04:12.667Z,92655.38
2018-11-07T04:06:48.562Z,92649.67
2018-11-07T04:09:24.614Z,92652.00
2018-11-07T04:14:37.432Z,92654.69
2018-11-07T04:17:13.434Z,92655.23
2018-11-07T04:19:49.839Z,92653.97
2018-11-07T04:22:25.895Z,92652.05
2018-11-07T04:25:02.272Z,92652.98
2018-11-07T04:27:38.624Z,92659.25
2018-11-07T04:30:15.049Z,92658.86
2018-11-07T04:32:52.471Z,92654.16
2018-11-07T04:35:28.553Z,92652.25
2018-11-07T04:38:04.528Z,92654.36
2018-11-07T04:40:40.543Z,92655.82
2018-11-07T04:43:16.623Z,92662.24
2018-11-07T04:45:52.562Z,92658.00
2018-11-07T04:48:28.667Z,92664.99
2018-11-07T04:51:05.444Z,92663.63
2018-11-07T04:53:42.160Z,92669.36
2018-11-07T04:56:18.377Z,92670.50
2018-11-07T04:58:54.282Z,92668.07
2018-11-07T05:01:30.419Z,92670.44
2018-11-07T05:04:06.533Z,92669.44
2018-11-07T05:06:42.506Z,92668.95
2018-11-07T05:09:18.609Z,92669.44
2018-11-07T05:12:07.225Z,92675.59
2018-11-07T05:14:45.237Z,92675.48
2018-11-07T05:17:25.194Z,92674.38
2018-11-07T05:20:02.181Z,92675.94
2018-11-07T05:22:38.280Z,92679.72
2018-11-07T05:25:14.979Z,92686.09
2018-11-07T05:27:52.995Z,92683.33
2018-11-07T05:30:29.133Z,92689.18
2018-11-07T05:33:05.271Z,92693.25
2018-11-07T05:35:41.478Z,92691.09
2018-11-07T05:38:17.600Z,92695.50
2018-11-07T05:40:53.554Z,92698.58
2018-11-07T05:43:29.880Z,92697.94
2018-11-07T05:46:06.190Z,92702.67
2018-11-07T05:48:46.451Z,92705.97
2018-11-07T05:51:22.470Z,92708.64
2018-11-07T05:53:58.409Z,92714.80
2018-11-07T05:56:34.506Z,92710.36
2018-11-07T05:59:11.298Z,92715.09
2018-11-07T06:01:47.216Z,92723.83
2018-11-07T06:04:23.282Z,92720.44
2018-11-07T06:06:59.301Z,92721.16
2018-11-07T06:09:38.536Z,92718.77
2018-11-07T06:12:14.467Z,92717.84
2018-11-07T06:14:50.479Z,92724.26
2018-11-07T06:17:26.590Z,92719.10
2018-11-07T06:20:04.397Z,92724.72
2018-11-07T06:22:40.491Z,92723.55
2018-11-07T06:25:16.431Z,92724.59
2018-11-07T06:27:52.505Z,92729.05
2018-11-07T06:30:30.947Z,92731.58
2018-11-07T06:33:10.177Z,92731.38
2018-11-07T06:35:47.162Z,92727.47
2018-11-07T06:38:23.260Z,92727.55
2018-11-07T06:40:59.991Z,92733.19
2018-11-07T06:43:36.133Z,92733.09
2018-11-07T06:46:12.049Z,92730.20
2018-11-07T06:48:47.978Z,92728.80
2018-11-07T06:51:24.797Z,92724.41
2018-11-07T06:54:06.169Z,92730.37
2018-11-07T06:56:42.708Z,92726.41
2018-11-07T06:59:20.279Z,92727.16
2018-11-07T07:01:56.438Z,92726.58
2018-11-07T07:04:32.414Z,92722.74
2018-11-07T07:07:08.392Z,92725.70
2018-11-07T07:09:44.361Z,92724.77
2018-11-07T07:12:20.340Z,92726.08
2018-11-07T07:14:56.650Z,92723.25
2018-11-07T07:17:37.132Z,92730.78
2018-11-07T07:20:15.713Z,92725.20
2018-11-07T07:22:51.563Z,92721.03
2018-11-07T07:25:28.297Z,92727.73
2018-11-07T07:28:04.402Z,92723.60
2018-11-07T07:30:41.014Z,92719.38
2018-11-07T07:33:17.195Z,92720.75
2018-11-07T07:35:54.119Z,92717.53
2018-11-07T07:38:30.145Z,92710.45
2018-11-07T07:41:06.271Z,92722.00
2018-11-07T07:43:42.203Z,92718.87
2018-11-07T07:46:18.397Z,92719.94
2018-11-07T07:48:54.490Z,92720.23
2018-11-07T07:51:30.553Z,92717.18
2018-11-07T07:54:06.840Z,92719.92
2018-11-07T07:56:42.915Z,92717.31
2018-11-07T07:59:18.797Z,92713.84
2018-11-07T08:01:54.944Z,92713.33
2018-11-07T08:04:30.875Z,92718.81
2018-11-07T08:07:07.461Z,92720.96
2018-11-07T08:09:43.537Z,92719.11
2018-11-07T08:12:19.665Z,92718.94
2018-11-07T08:14:55.730Z,92719.57
2018-11-07T08:17:31.890Z,92718.86
2018-11-07T08:20:09.385Z,92718.70
2018-11-07T08:22:46.195Z,92721.17
2018-11-07T08:25:22.183Z,92708.75
2018-11-07T08:27:58.685Z,92709.39
2018-11-07T08:30:34.691Z,92713.44
2018-11-07T08:33:10.684Z,92707.75
2018-11-07T08:35:46.702Z,92704.35
2018-11-07T08:38:22.796Z,92702.91
2018-11-07T08:40:59.128Z,92707.73
2018-11-07T08:43:35.441Z,92701.48
2018-11-07T08:46:11.566Z,92704.95
2018-11-07T08:48:47.975Z,92694.40
2018-11-07T08:51:23.931Z,92704.34
2018-11-07T08:53:59.990Z,92705.42
2018-11-07T08:56:35.925Z,92699.63
2018-11-07T08:59:12.205Z,92709.78
2018-11-07T09:01:48.290Z,92700.44
2018-11-07T09:04:24.397Z,92698.53
2018-11-07T09:07:00.734Z,92692.48
2018-11-07T09:09:36.858Z,92696.95
2018-11-07T09:12:12.776Z,92693.06
2018-11-07T09:14:49.299Z,92690.59
2018-11-07T09:17:25.278Z,92691.51
2018-11-07T09:20:01.333Z,92687.17
2018-11-07T09:22:49.605Z,92683.30
2018-11-07T09:25:26.173Z,92670.30
2018-11-07T09:28:02.271Z,92677.27
2018-11-07T09:30:38.484Z,92668.72
2018-11-07T09:33:15.118Z,92669.02
2018-11-07T09:35:51.457Z,92664.28
2018-11-07T09:38:27.532Z,92657.32
2018-11-07T09:41:03.697Z,92655.03
2018-11-07T09:43:39.651Z,92654.39
2018-11-07T09:46:15.807Z,92654.39
2018-11-07T09:48:51.811Z,92644.27
2018-11-07T09:51:29.444Z,92640.53
2018-11-07T09:54:05.375Z,92638.18
2018-11-07T09:56:41.790Z,92637.41
2018-11-07T09:59:18.099Z,92633.93
2018-11-07T10:01:54.140Z,92635.59
2018-11-07T10:04:30.099Z,92631.80
2018-11-07T10:07:06.654Z,92628.42
2018-11-07T10:09:56.481Z,92624.80
2018-11-07T10:12:44.995Z,92626.70
2018-11-07T10:15:21.380Z,92623.64
2018-11-07T10:17:57.405Z,92625.20
2018-11-07T10:20:34.207Z,92614.31
2018-11-07T10:23:10.654Z,92621.16
2018-11-07T10:25:46.737Z,92615.84
2018-11-07T10:28:23.067Z,92609.77
2018-11-07T10:30:59.306Z,92612.83
2018-11-07T10:33:35.253Z,92603.77
2018-11-07T10:36:11.406Z,92607.19
2018-11-07T10:38:47.618Z,92599.73
2018-11-07T10:41:23.466Z,92603.14
2018-11-07T10:43:59.696Z,92601.73
2018-11-07T10:46:35.991Z,92597.66
2018-11-07T10:49:12.044Z,92593.47
2018-11-07T10:51:47.993Z,92588.39
2018-11-07T10:54:24.357Z,92584.20
2018-11-07T10:57:00.473Z,92593.95
2018-11-07T10:59:36.629Z,92591.21
2018-11-07T11:02:19.044Z,92583.27
2018-11-07T11:04:56.794Z,92579.03
2018-11-07T11:07:32.971Z,92579.45
2018-11-07T11:10:09.520Z,92575.22
2018-11-07T11:12:46.033Z,92564.67
2018-11-07T11:15:22.223Z,92568.89
2018-11-07T11:17:58.177Z,92563.67
2018-11-07T11:20:34.473Z,92554.59
2018-11-07T11:23:10.512Z,92554.66
2018-11-07T11:25:46.737Z,92550.28
2018-11-07T11:28:22.914Z,92547.20
2018-11-07T11:30:58.977Z,92541.44
2018-11-07T11:33:38.795Z,92538.78
2018-11-07T11:36:15.057Z,92537.48
2018-11-07T11:38:51.268Z,92533.52
2018-11-07T11:41:28.469Z,92525.09
2018-11-07T11:44:06.602Z,92524.20
2018-11-07T11:46:42.718Z,92523.40
2018-11-07T11:49:19.534Z,92522.28
2018-11-07T11:51:56.546Z,92516.59
2018-11-07T11:54:32.614Z,92516.13
2018-11-07T11:57:08.662Z,92516.37
2018-11-07T11:59:44.929Z,92518.78
2018-11-07T12:02:21.270Z,92508.87
2018-11-07T12:04:57.357Z,92510.27
2018-11-07T12:07:33.757Z,92512.77
2018-11-07T12:10:16.168Z,92505.55
2018-11-07T12:12:54.653Z,92506.91
2018-11-07T12:15:30.687Z,92503.92
2018-11-07T12:18:07.076Z,92503.27
2018-11-07T12:20:43.072Z,92495.63
2018-11-07T12:23:19.121Z,92497.00
2018-11-07T12:25:55.025Z,92492.61
2018-11-07T12:28:31.068Z,92489.62
2018-11-07T12:31:07.151Z,92489.06
2018-11-07T12:33:43.892Z,92485.05
2018-11-07T12:36:19.857Z,92480.53
2018-11-07T12:38:56.052Z,92481.64
2018-11-07T12:41:32.100Z,92481.95
2018-11-07T12:44:08.189Z,92472.06
2018-11-07T12:46:44.350Z,92473.20
2018-11-07T12:49:20.727Z,92470.92
2018-11-07T12:51:57.133Z,92463.94
2018-11-07T12:54:33.419Z,92466.48
2018-11-07T12:57:09.574Z,92463.45
2018-11-07T12:59:46.020Z,92463.60
2018-11-07T13:02:17.046Z,92463.53
2018-11-07T13:04:49.291Z,92458.47
2018-11-07T13:07:20.340Z,92457.98
2018-11-07T13:09:51.505Z,92454.84
2018-11-07T13:12:28.075Z,92461.72
2018-11-07T13:14:59.151Z,92459.31
2018-11-07T13:17:30.131Z,92465.80
2018-11-07T13:20:01.282Z,92460.00
2018-11-07T13:22:32.386Z,92454.23
2018-11-07T13:25:04.092Z,92454.51
2018-11-07T13:27:35.143Z,92461.59
2018-11-07T13:30:08.636Z,92453.48
2018-11-07T13:32:40.269Z,92458.47
2018-11-07T13:35:12.404Z,92456.17
2018-11-07T13:37:44.317Z,92456.37
2018-11-07T13:40:17.682Z,92451.80
2018-11-07T13:42:48.736Z,92457.67
2018-11-07T13:45:20.747Z,92455.34
2018-11-07T13:47:53.169Z,92454.03
2018-11-07T13:50:24.227Z,92462.97
2018-11-07T13:52:55.227Z,92471.55
2018-11-07T13:55:26.859Z,92470.32
2018-11-07T13:57:58.453Z,92468.13
2018-11-07T14:00:29.484Z,92466.58
2018-11-07T14:03:00.444Z,92461.57
2018-11-07T14:05:32.107Z,92461.20
2018-11-07T14:08:03.238Z,92464.30
2018-11-07T14:10:37.160Z,92466.92
2018-11-07T14:13:12.244Z,92460.86
2018-11-07T14:15:43.351Z,92462.23
2018-11-07T14:18:15.040Z,92462.92
2018-11-07T14:20:46.181Z,92466.20
2018-11-07T14:23:17.159Z,92465.29
2018-11-07T14:25:48.342Z,92461.80
2018-11-07T14:28:19.549Z,92462.47
2018-11-07T14:30:50.710Z,92460.27
2018-11-07T14:33:22.292Z,92461.23
2018-11-07T14:35:53.433Z,92461.84
2018-11-07T14:38:24.429Z,92464.52
2018-11-07T14:40:55.631Z,92465.95
2018-11-07T14:43:26.593Z,92464.88
2018-11-07T14:45:57.576Z,92465.83
2018-11-07T14:48:28.529Z,92465.25
2018-11-07T14:51:00.315Z,92466.49
2018-11-07T14:53:31.290Z,92474.52
2018-11-07T14:56:02.669Z,92477.19
2018-11-07T14:58:34.210Z,92479.80
2018-11-07T15:01:05.324Z,92482.73
2018-11-07T15:03:36.333Z,92483.76
2018-11-07T15:06:07.373Z,92477.73
2018-11-07T15:08:38.691Z,92479.41
2018-11-07T15:11:09.906Z,92473.23
2018-11-07T15:13:42.489Z,92478.58
2018-11-07T15:16:16.445Z,92472.45
2018-11-07T15:18:47.654Z,92476.16
2018-11-07T15:21:18.625Z,92474.17
2018-11-07T15:23:49.635Z,92478.28
2018-11-07T15:26:20.773Z,92478.12
2018-11-07T15:28:51.885Z,92476.23
2018-11-07T15:31:23.699Z,92483.03
2018-11-07T15:33:54.688Z,92481.83
2018-11-07T15:36:25.975Z,92483.38
2018-11-07T15:39:00.605Z,92482.40
2018-11-07T15:41:31.647Z,92484.67
2018-11-07T15:44:02.571Z,92486.70
2018-11-07T15:46:33.715Z,92490.30
2018-11-07T15:49:04.757Z,92484.00
2018-11-07T15:51:36.013Z,92479.92
2018-11-07T15:54:08.574Z,92480.85
2018-11-07T15:56:39.790Z,92486.99
2018-11-07T15:59:11.150Z,92485.48
2018-11-07T16:01:42.263Z,92489.62
2018-11-07T16:04:13.693Z,92486.57
2018-11-07T16:06:44.694Z,92494.20
2018-11-07T16:09:15.931Z,92498.28
2018-11-07T16:11:47.079Z,92496.62
2018-11-07T16:14:18.236Z,92499.69
2018-11-07T16:16:50.184Z,92505.06
2018-11-07T16:19:21.186Z,92501.34
2018-11-07T16:21:52.305Z,92498.67
2018-11-07T16:24:23.385Z,92497.88
2018-11-07T16:26:54.519Z,92497.78
2018-11-07T16:29:25.503Z,92511.03
2018-11-07T16:31:58.623Z,92510.79
2018-11-07T16:34:29.648Z,92508.02
2018-11-07T16:37:00.647Z,92512.92
2018-11-07T16:39:32.257Z,92517.73
2018-11-07T16:42:03.666Z,92511.25
2018-11-07T16:44:34.633Z,92515.75
2018-11-07T16:47:05.840Z,92520.92
2018-11-07T16:49:36.985Z,92522.07
2018-11-07T16:52:07.998Z,92528.25
2018-11-07T16:54:38.953Z,92523.91
2018-11-07T16:57:10.000Z,92524.59
2018-11-07T16:59:42.333Z,92521.52
2018-11-07T17:02:13.352Z,92528.48
2018-11-07T17:04:44.432Z,92524.07
2018-11-07T17:07:15.815Z,92527.79
2018-11-07T17:09:47.128Z,92524.36
2018-11-07T17:12:19.028Z,92527.84
2018-11-07T17:14:50.318Z,92528.16
2018-11-07T17:17:21.390Z,92533.98
2018-11-07T17:19:52.502Z,92531.67
2018-11-07T17:22:23.539Z,92533.86
2018-11-07T17:24:54.582Z,92532.49
2018-11-07T17:27:25.702Z,92538.13
2018-11-07T17:29:56.853Z,92537.16
2018-11-07T17:32:27.913Z,92527.88
2018-11-07T17:34:58.850Z,92524.41
2018-11-07T17:37:30.174Z,92531.34
2018-11-07T17:40:01.730Z,92534.44
2018-11-07T17:42:32.906Z,92538.45
2018-11-07T17:45:04.663Z,92536.23
2018-11-07T17:47:35.674Z,92538.15
2018-11-07T17:50:08.187Z,92538.09
2018-11-07T17:52:39.271Z,92536.50
2018-11-07T17:55:11.413Z,92543.05
2018-11-07T17:57:42.568Z,92545.08
2018-11-07T18:00:15.657Z,92547.47
2018-11-07T18:02:46.826Z,92547.11
2018-11-07T18:05:17.866Z,92545.19
2018-11-07T18:07:48.925Z,92547.66
2018-11-07T18:10:19.893Z,92554.05
2018-11-07T18:12:51.138Z,92554.44
2018-11-07T18:15:22.964Z,92555.67
2018-11-07T18:17:54.011Z,92557.22
2018-11-07T18:20:25.053Z,92554.96
2018-11-07T18:22:56.575Z,92559.27
2018-11-07T18:25:27.695Z,92556.81
2018-11-07T18:28:02.284Z,92559.38
2018-11-07T18:30:34.020Z,92565.09
2018-11-07T18:33:05.407Z,92568.16
2018-11-07T18:35:37.620Z,92568.77
2018-11-07T18:38:09.025Z,92568.64
2018-11-07T18:40:40.299Z,92563.48
2018-11-07T18:43:11.570Z,92571.77
2018-11-07T18:45:42.772Z,92562.84
2018-11-07T18:48:13.798Z,92572.40
2018-11-07T18:50:45.091Z,92568.35
2018-11-07T18:53:16.491Z,92574.11
2018-11-07T18:55:47.572Z,92570.09
2018-11-07T18:58:18.721Z,92571.02
2018-11-07T19:00:49.958Z,92573.47
2018-11-07T19:03:21.287Z,92577.16
2018-11-07T19:05:52.313Z,92580.84
2018-11-07T19:08:23.478Z,92580.32
2018-11-07T19:10:54.574Z,92577.48
2018-11-07T19:13:25.644Z,92582.70
2018-11-07T19:15:56.690Z,92585.98
2018-11-07T19:18:27.922Z,92586.33
2018-11-07T19:20:59.666Z,92586.36
2018-11-07T19:23:30.943Z,92590.50
2018-11-07T19:26:01.985Z,92594.36
2018-11-07T19:28:33.142Z,92589.55
2018-11-07T19:31:08.997Z,92591.08
2018-11-07T19:33:40.149Z,92588.44
2018-11-07T19:36:11.152Z,92591.94
2018-11-07T19:38:42.408Z,92594.02
2018-11-07T19:41:14.173Z,92590.98
2018-11-07T19:43:45.956Z,92593.80
2018-11-07T19:46:17.347Z,92592.25
2018-11-07T19:48:48.838Z,92592.05
2018-11-07T19:51:20.936Z,92595.62
2018-11-07T19:53:52.493Z,92588.12
2018-11-07T19:56:24.139Z,92589.69
2018-11-07T19:58:56.885Z,92587.41
2018-11-07T20:01:32.098Z,92590.38
2018-11-07T20:04:03.059Z,92586.72
2018-11-07T20:06:34.088Z,92589.39
2018-11-07T20:09:06.758Z,92591.63
2018-11-07T20:11:37.754Z,92592.64
2018-11-07T20:14:09.839Z,92583.76
2018-11-07T20:16:42.413Z,92578.34
2018-11-07T20:19:21.607Z,92576.02
2018-11-07T20:21:52.861Z,92580.02
2018-11-07T20:24:24.772Z,92584.61
2018-11-07T20:26:57.520Z,92584.05
2018-11-07T20:29:29.189Z,92590.27
2018-11-07T20:32:01.615Z,92587.36
2018-11-07T20:34:35.471Z,92584.66
2018-11-07T20:37:07.496Z,92588.42
2018-11-07T20:39:38.981Z,92585.88
2018-11-07T20:42:10.536Z,92581.44
2018-11-07T20:44:42.306Z,92586.64
2018-11-07T20:47:13.885Z,92580.95
2018-11-07T20:49:46.713Z,92580.15
2018-11-07T20:52:20.163Z,92582.63
2018-11-07T20:54:52.320Z,92584.35
2018-11-07T20:57:23.893Z,92581.33
2018-11-07T21:00:00.744Z,92584.53
2018-11-07T21:02:38.396Z,92576.80
2018-11-07T21:05:15.113Z,92581.81
2018-11-07T21:07:51.711Z,92576.40
2018-11-07T21:10:29.377Z,92578.05
2018-11-07T21:13:05.728Z,92582.50
2018-11-07T21:15:43.756Z,92576.45
2018-11-07T21:18:21.397Z,92573.52
2018-11-07T21:20:57.946Z,92576.66
2018-11-07T21:23:34.437Z,92572.89
2018-11-07T21:26:12.246Z,92572.98
2018-11-07T21:28:49.601Z,92572.55
2018-11-07T21:31:26.161Z,92572.09
2018-11-07T21:34:05.343Z,92568.88
2018-11-07T21:36:41.988Z,92576.00
2018-11-07T21:39:19.285Z,92569.12
2018-11-07T21:41:55.673Z,92569.16
2018-11-07T21:44:31.990Z,92571.94
2018-11-07T21:47:08.380Z,92577.19
2018-11-07T21:49:45.074Z,92571.17
2018-11-07T21:52:21.764Z,92572.02
2018-11-07T21:54:57.995Z,92565.51
2018-11-07T21:57:37.594Z,92570.30
2018-11-07T22:00:17.047Z,92565.92
2018-11-07T22:02:53.555Z,92569.91
2018-11-07T22:05:29.777Z,92567.28
2018-11-07T22:08:07.482Z,92563.61
2018-11-07T22:10:45.301Z,92564.72
2018-11-07T22:13:21.859Z,92567.98
2018-11-07T22:15:58.132Z,92565.02
2018-11-07T22:18:34.429Z,92564.69
2018-11-07T22:21:10.836Z,92561.30
2018-11-07T22:23:47.198Z,92559.92
2018-11-07T22:26:24.239Z,92557.02
2018-11-07T22:29:00.823Z,92555.48
2018-11-07T22:31:38.587Z,92551.64
2018-11-07T22:34:15.237Z,92557.11
2018-11-07T22:36:51.845Z,92548.62
2018-11-07T22:39:29.063Z,92546.37
2018-11-07T22:42:05.822Z,92548.98
2018-11-07T22:44:42.940Z,92551.12
2018-11-07T22:47:19.857Z,92547.91
2018-11-07T22:49:56.280Z,92548.72
2018-11-07T22:52:32.617Z,92542.13
2018-11-07T22:55:09.503Z,92538.48
2018-11-07T22:57:45.876Z,92535.17
2018-11-07T23:00:27.524Z,92535.80
2018-11-07T23:03:05.784Z,92541.33
2018-11-07T23:05:44.255Z,92538.00
2018-11-07T23:08:21.428Z,92534.77
2018-11-07T23:10:58.255Z,92533.43
2018-11-07T23:13:34.658Z,92529.94
2018-11-07T23:16:11.812Z,92522.75
2018-11-07T23:18:49.079Z,92520.04
2018-11-07T23:21:25.878Z,92525.67
2018-11-07T23:24:02.177Z,92528.62
2018-11-07T23:26:39.307Z,92520.52
2018-11-07T23:29:15.925Z,92513.92
2018-11-07T23:31:52.684Z,92517.88
2018-11-07T23:34:29.342Z,92518.90
2018-11-07T23:37:05.658Z,92519.98
2018-11-07T23:39:42.283Z,92521.98
2018-11-07T23:42:19.022Z,92519.54
2018-11-07T23:44:55.326Z,92517.81
2018-11-07T23:47:31.971Z,92518.39
2018-11-07T23:50:09.131Z,92518.69
2018-11-07T23:52:52.300Z,92519.54
2018-11-07T23:55:29.052Z,92514.96
2018-11-07T23:58:05.506Z,92511.11
